sensor_id;sensor_type;location;lat;lon;timestamp;temperature;humidity
25440;DHT22;13365;52.208;5.488;2023-03-01T00:01:20;4.50;79.50
25440;DHT22;13365;52.208;5.488;2023-03-01T00:03:47;4.50;79.60
25440;DHT22;13365;52.208;5.488;2023-03-01T00:06:13;4.40;79.50
25440;DHT22;13365;52.208;5.488;2023-03-01T00:08:39;4.30;79.40
25440;DHT22;13365;52.208;5.488;2023-03-01T00:11:06;4.20;79.80
25440;DHT22;13365;52.208;5.488;2023-03-01T00:13:33;4.10;80.80
25440;DHT22;13365;52.208;5.488;2023-03-01T00:15:58;4.10;82.20
25440;DHT22;13365;52.208;5.488;2023-03-01T00:18:24;4.20;83.70
25440;DHT22;13365;52.208;5.488;2023-03-01T00:20:51;4.40;84.50
25440;DHT22;13365;52.208;5.488;2023-03-01T00:23:17;4.40;84.90
25440;DHT22;13365;52.208;5.488;2023-03-01T00:25:43;4.30;84.80
25440;DHT22;13365;52.208;5.488;2023-03-01T00:28:08;4.40;85.30
25440;DHT22;13365;52.208;5.488;2023-03-01T00:30:34;4.50;85.70
25440;DHT22;13365;52.208;5.488;2023-03-01T00:33:00;4.50;85.70
25440;DHT22;13365;52.208;5.488;2023-03-01T00:35:25;4.60;85.30
25440;DHT22;13365;52.208;5.488;2023-03-01T00:37:50;4.60;84.80
25440;DHT22;13365;52.208;5.488;2023-03-01T00:40:29;4.60;84.30
25440;DHT22;13365;52.208;5.488;2023-03-01T00:42:55;4.50;84.50
25440;DHT22;13365;52.208;5.488;2023-03-01T00:45:21;4.50;84.90
25440;DHT22;13365;52.208;5.488;2023-03-01T00:47:48;4.40;85.70
25440;DHT22;13365;52.208;5.488;2023-03-01T00:50:14;4.30;86.30
25440;DHT22;13365;52.208;5.488;2023-03-01T00:52:39;4.40;86.50
25440;DHT22;13365;52.208;5.488;2023-03-01T00:55:05;4.50;86.60
25440;DHT22;13365;52.208;5.488;2023-03-01T00:57:31;4.50;86.60
25440;DHT22;13365;52.208;5.488;2023-03-01T00:59:57;4.50;86.60
25440;DHT22;13365;52.208;5.488;2023-03-01T01:02:23;4.60;86.70
25440;DHT22;13365;52.208;5.488;2023-03-01T01:04:49;4.70;86.60
25440;DHT22;13365;52.208;5.488;2023-03-01T01:07:15;4.60;86.40
25440;DHT22;13365;52.208;5.488;2023-03-01T01:09:41;4.60;86.20
25440;DHT22;13365;52.208;5.488;2023-03-01T01:12:07;4.60;86.30
25440;DHT22;13365;52.208;5.488;2023-03-01T01:14:33;4.60;86.70
25440;DHT22;13365;52.208;5.488;2023-03-01T01:16:59;4.70;86.80
25440;DHT22;13365;52.208;5.488;2023-03-01T01:19:25;4.60;86.70
25440;DHT22;13365;52.208;5.488;2023-03-01T01:21:51;4.70;87.00
25440;DHT22;13365;52.208;5.488;2023-03-01T01:24:17;4.70;87.50
25440;DHT22;13365;52.208;5.488;2023-03-01T01:26:43;4.60;86.60
25440;DHT22;13365;52.208;5.488;2023-03-01T01:29:09;4.70;86.90
25440;DHT22;13365;52.208;5.488;2023-03-01T01:31:36;4.70;86.80
25440;DHT22;13365;52.208;5.488;2023-03-01T01:34:03;4.60;86.80
25440;DHT22;13365;52.208;5.488;2023-03-01T01:36:29;4.70;87.00
25440;DHT22;13365;52.208;5.488;2023-03-01T01:38:55;4.70;87.30
25440;DHT22;13365;52.208;5.488;2023-03-01T01:41:21;4.60;87.10
25440;DHT22;13365;52.208;5.488;2023-03-01T01:43:50;4.50;87.90
25440;DHT22;13365;52.208;5.488;2023-03-01T01:46:36;4.40;88.60
25440;DHT22;13365;52.208;5.488;2023-03-01T01:49:21;4.50;88.60
25440;DHT22;13365;52.208;5.488;2023-03-01T01:51:49;4.50;88.70
25440;DHT22;13365;52.208;5.488;2023-03-01T01:54:24;4.80;89.30
25440;DHT22;13365;52.208;5.488;2023-03-01T01:57:03;4.70;89.60
25440;DHT22;13365;52.208;5.488;2023-03-01T01:59:30;4.50;90.00
25440;DHT22;13365;52.208;5.488;2023-03-01T02:01:59;4.40;90.30
25440;DHT22;13365;52.208;5.488;2023-03-01T02:04:27;4.40;90.50
25440;DHT22;13365;52.208;5.488;2023-03-01T02:07:09;4.70;90.60
25440;DHT22;13365;52.208;5.488;2023-03-01T02:09:36;4.70;90.30
25440;DHT22;13365;52.208;5.488;2023-03-01T02:12:03;4.70;90.10
25440;DHT22;13365;52.208;5.488;2023-03-01T02:14:29;4.70;90.20
25440;DHT22;13365;52.208;5.488;2023-03-01T02:16:55;4.60;90.10
25440;DHT22;13365;52.208;5.488;2023-03-01T02:19:47;4.50;90.20
25440;DHT22;13365;52.208;5.488;2023-03-01T02:22:22;4.40;90.40
25440;DHT22;13365;52.208;5.488;2023-03-01T02:25:12;4.20;90.50
25440;DHT22;13365;52.208;5.488;2023-03-01T02:30:34;4.30;90.60
25440;DHT22;13365;52.208;5.488;2023-03-01T02:33:00;4.50;90.60
25440;DHT22;13365;52.208;5.488;2023-03-01T02:35:35;4.50;90.40
25440;DHT22;13365;52.208;5.488;2023-03-01T02:38:01;4.60;90.30
25440;DHT22;13365;52.208;5.488;2023-03-01T02:40:29;4.70;90.60
25440;DHT22;13365;52.208;5.488;2023-03-01T02:42:57;4.80;90.00
25440;DHT22;13365;52.208;5.488;2023-03-01T02:45:24;4.70;89.60
25440;DHT22;13365;52.208;5.488;2023-03-01T02:47:52;4.80;89.40
25440;DHT22;13365;52.208;5.488;2023-03-01T02:53:04;4.70;89.30
25440;DHT22;13365;52.208;5.488;2023-03-01T02:55:33;4.70;89.30
25440;DHT22;13365;52.208;5.488;2023-03-01T02:58:02;4.60;89.00
25440;DHT22;13365;52.208;5.488;2023-03-01T03:00:37;4.70;89.10
25440;DHT22;13365;52.208;5.488;2023-03-01T03:03:06;4.70;88.70
25440;DHT22;13365;52.208;5.488;2023-03-01T03:05:32;4.60;88.70
25440;DHT22;13365;52.208;5.488;2023-03-01T03:07:59;4.50;88.70
25440;DHT22;13365;52.208;5.488;2023-03-01T03:10:32;4.50;88.80
25440;DHT22;13365;52.208;5.488;2023-03-01T03:13:04;4.40;89.00
25440;DHT22;13365;52.208;5.488;2023-03-01T03:15:31;4.50;89.20
25440;DHT22;13365;52.208;5.488;2023-03-01T03:17:58;4.40;88.70
25440;DHT22;13365;52.208;5.488;2023-03-01T03:20:26;4.40;88.90
25440;DHT22;13365;52.208;5.488;2023-03-01T03:22:54;4.40;89.20
25440;DHT22;13365;52.208;5.488;2023-03-01T03:25:21;4.50;89.30
25440;DHT22;13365;52.208;5.488;2023-03-01T03:27:48;4.50;89.20
25440;DHT22;13365;52.208;5.488;2023-03-01T03:30:17;4.40;88.90
25440;DHT22;13365;52.208;5.488;2023-03-01T03:32:45;4.40;89.00
25440;DHT22;13365;52.208;5.488;2023-03-01T03:35:18;4.40;88.90
25440;DHT22;13365;52.208;5.488;2023-03-01T03:37:44;4.40;88.90
25440;DHT22;13365;52.208;5.488;2023-03-01T03:40:37;4.40;88.50
25440;DHT22;13365;52.208;5.488;2023-03-01T03:43:05;4.40;88.40
25440;DHT22;13365;52.208;5.488;2023-03-01T03:45:30;4.30;87.70
25440;DHT22;13365;52.208;5.488;2023-03-01T03:47:59;4.20;87.50
25440;DHT22;13365;52.208;5.488;2023-03-01T03:50:25;4.20;87.50
25440;DHT22;13365;52.208;5.488;2023-03-01T03:52:50;4.10;87.10
25440;DHT22;13365;52.208;5.488;2023-03-01T03:55:16;4.10;87.50
25440;DHT22;13365;52.208;5.488;2023-03-01T03:57:45;4.00;87.40
25440;DHT22;13365;52.208;5.488;2023-03-01T04:00:18;4.10;87.60
25440;DHT22;13365;52.208;5.488;2023-03-01T04:02:45;4.10;87.20
25440;DHT22;13365;52.208;5.488;2023-03-01T04:05:13;4.10;86.80
25440;DHT22;13365;52.208;5.488;2023-03-01T04:07:40;4.10;86.30
25440;DHT22;13365;52.208;5.488;2023-03-01T04:10:08;4.10;87.00
25440;DHT22;13365;52.208;5.488;2023-03-01T04:12:35;4.10;86.20
25440;DHT22;13365;52.208;5.488;2023-03-01T04:15:01;4.00;86.40
25440;DHT22;13365;52.208;5.488;2023-03-01T04:17:28;3.90;86.40
25440;DHT22;13365;52.208;5.488;2023-03-01T04:19:54;3.90;86.60
25440;DHT22;13365;52.208;5.488;2023-03-01T04:22:19;3.90;86.60
25440;DHT22;13365;52.208;5.488;2023-03-01T04:24:45;3.80;87.20
25440;DHT22;13365;52.208;5.488;2023-03-01T04:27:11;3.80;86.20
25440;DHT22;13365;52.208;5.488;2023-03-01T04:29:37;3.70;86.10
25440;DHT22;13365;52.208;5.488;2023-03-01T04:32:02;3.70;86.10
25440;DHT22;13365;52.208;5.488;2023-03-01T04:34:29;3.60;85.90
25440;DHT22;13365;52.208;5.488;2023-03-01T04:36:55;3.60;85.90
25440;DHT22;13365;52.208;5.488;2023-03-01T04:39:20;3.40;85.80
25440;DHT22;13365;52.208;5.488;2023-03-01T04:41:46;3.50;86.30
25440;DHT22;13365;52.208;5.488;2023-03-01T04:44:12;3.60;86.30
25440;DHT22;13365;52.208;5.488;2023-03-01T04:46:38;3.60;86.10
25440;DHT22;13365;52.208;5.488;2023-03-01T04:49:03;3.50;86.00
25440;DHT22;13365;52.208;5.488;2023-03-01T04:51:31;3.50;86.00
25440;DHT22;13365;52.208;5.488;2023-03-01T04:53:58;3.40;85.90
25440;DHT22;13365;52.208;5.488;2023-03-01T04:56:23;3.40;86.10
25440;DHT22;13365;52.208;5.488;2023-03-01T04:58:49;3.30;85.90
25440;DHT22;13365;52.208;5.488;2023-03-01T05:01:17;3.40;86.10
25440;DHT22;13365;52.208;5.488;2023-03-01T05:03:44;3.40;85.90
25440;DHT22;13365;52.208;5.488;2023-03-01T05:06:10;3.30;85.90
25440;DHT22;13365;52.208;5.488;2023-03-01T05:08:37;3.30;85.90
25440;DHT22;13365;52.208;5.488;2023-03-01T05:11:03;3.30;85.80
25440;DHT22;13365;52.208;5.488;2023-03-01T05:13:29;3.30;85.70
25440;DHT22;13365;52.208;5.488;2023-03-01T05:15:57;3.00;85.30
25440;DHT22;13365;52.208;5.488;2023-03-01T05:18:24;2.80;85.80
25440;DHT22;13365;52.208;5.488;2023-03-01T05:20:55;2.80;86.20
25440;DHT22;13365;52.208;5.488;2023-03-01T05:23:24;2.80;86.30
25440;DHT22;13365;52.208;5.488;2023-03-01T05:25:49;2.70;86.00
25440;DHT22;13365;52.208;5.488;2023-03-01T05:28:18;2.40;86.50
25440;DHT22;13365;52.208;5.488;2023-03-01T05:30:44;2.50;88.00
25440;DHT22;13365;52.208;5.488;2023-03-01T05:33:10;2.60;87.80
25440;DHT22;13365;52.208;5.488;2023-03-01T05:35:39;2.80;87.60
25440;DHT22;13365;52.208;5.488;2023-03-01T05:38:06;2.80;87.10
25440;DHT22;13365;52.208;5.488;2023-03-01T05:40:33;2.90;86.90
25440;DHT22;13365;52.208;5.488;2023-03-01T05:42:58;2.80;86.80
25440;DHT22;13365;52.208;5.488;2023-03-01T05:45:26;2.80;86.70
25440;DHT22;13365;52.208;5.488;2023-03-01T05:47:53;2.90;87.00
25440;DHT22;13365;52.208;5.488;2023-03-01T05:50:22;3.00;87.30
25440;DHT22;13365;52.208;5.488;2023-03-01T05:52:50;2.90;86.90
25440;DHT22;13365;52.208;5.488;2023-03-01T05:55:20;2.90;87.10
25440;DHT22;13365;52.208;5.488;2023-03-01T05:57:46;2.90;86.80
25440;DHT22;13365;52.208;5.488;2023-03-01T06:00:15;2.80;86.80
25440;DHT22;13365;52.208;5.488;2023-03-01T06:02:41;2.80;87.00
25440;DHT22;13365;52.208;5.488;2023-03-01T06:05:08;2.90;87.20
25440;DHT22;13365;52.208;5.488;2023-03-01T06:07:34;2.90;87.00
25440;DHT22;13365;52.208;5.488;2023-03-01T06:10:01;2.90;86.80
25440;DHT22;13365;52.208;5.488;2023-03-01T06:12:29;2.80;86.70
25440;DHT22;13365;52.208;5.488;2023-03-01T06:14:55;2.80;86.70
25440;DHT22;13365;52.208;5.488;2023-03-01T06:17:21;2.90;86.70
25440;DHT22;13365;52.208;5.488;2023-03-01T06:19:46;2.90;86.50
25440;DHT22;13365;52.208;5.488;2023-03-01T06:22:12;2.90;86.40
25440;DHT22;13365;52.208;5.488;2023-03-01T06:24:38;2.90;86.30
25440;DHT22;13365;52.208;5.488;2023-03-01T06:27:04;2.70;85.90
25440;DHT22;13365;52.208;5.488;2023-03-01T06:29:29;2.60;86.10
25440;DHT22;13365;52.208;5.488;2023-03-01T06:31:55;2.70;86.30
25440;DHT22;13365;52.208;5.488;2023-03-01T06:34:20;2.60;86.10
25440;DHT22;13365;52.208;5.488;2023-03-01T06:36:47;2.60;86.30
25440;DHT22;13365;52.208;5.488;2023-03-01T06:39:12;2.60;86.50
25440;DHT22;13365;52.208;5.488;2023-03-01T06:41:38;2.60;86.50
25440;DHT22;13365;52.208;5.488;2023-03-01T06:44:04;2.60;87.30
25440;DHT22;13365;52.208;5.488;2023-03-01T06:46:29;2.70;86.60
25440;DHT22;13365;52.208;5.488;2023-03-01T06:48:55;2.70;86.80
25440;DHT22;13365;52.208;5.488;2023-03-01T06:51:21;2.80;86.80
25440;DHT22;13365;52.208;5.488;2023-03-01T06:53:46;2.80;86.80
25440;DHT22;13365;52.208;5.488;2023-03-01T06:56:12;2.90;87.20
25440;DHT22;13365;52.208;5.488;2023-03-01T06:58:37;2.90;87.60
25440;DHT22;13365;52.208;5.488;2023-03-01T07:01:09;3.00;87.70
25440;DHT22;13365;52.208;5.488;2023-03-01T07:03:35;3.00;87.80
25440;DHT22;13365;52.208;5.488;2023-03-01T07:06:00;3.20;88.20
25440;DHT22;13365;52.208;5.488;2023-03-01T07:08:26;3.20;88.50
25440;DHT22;13365;52.208;5.488;2023-03-01T07:10:56;3.30;88.80
25440;DHT22;13365;52.208;5.488;2023-03-01T07:13:22;3.40;89.20
25440;DHT22;13365;52.208;5.488;2023-03-01T07:15:47;3.40;89.60
25440;DHT22;13365;52.208;5.488;2023-03-01T07:18:13;3.60;90.10
25440;DHT22;13365;52.208;5.488;2023-03-01T07:20:38;3.60;90.10
25440;DHT22;13365;52.208;5.488;2023-03-01T07:23:05;3.70;90.30
25440;DHT22;13365;52.208;5.488;2023-03-01T07:25:31;3.90;90.60
25440;DHT22;13365;52.208;5.488;2023-03-01T07:27:57;4.00;90.60
25440;DHT22;13365;52.208;5.488;2023-03-01T07:30:23;4.10;90.80
25440;DHT22;13365;52.208;5.488;2023-03-01T07:32:52;4.10;91.10
25440;DHT22;13365;52.208;5.488;2023-03-01T07:35:18;4.10;91.50
25440;DHT22;13365;52.208;5.488;2023-03-01T07:37:43;4.20;92.00
25440;DHT22;13365;52.208;5.488;2023-03-01T07:40:09;4.40;92.10
25440;DHT22;13365;52.208;5.488;2023-03-01T07:42:35;4.40;92.00
25440;DHT22;13365;52.208;5.488;2023-03-01T07:45:00;4.60;92.10
25440;DHT22;13365;52.208;5.488;2023-03-01T07:47:26;4.90;92.10
25440;DHT22;13365;52.208;5.488;2023-03-01T07:49:51;4.90;91.90
25440;DHT22;13365;52.208;5.488;2023-03-01T07:52:17;5.20;92.00
25440;DHT22;13365;52.208;5.488;2023-03-01T07:54:43;5.30;91.80
25440;DHT22;13365;52.208;5.488;2023-03-01T07:57:10;5.50;91.80
25440;DHT22;13365;52.208;5.488;2023-03-01T07:59:35;5.50;91.60
25440;DHT22;13365;52.208;5.488;2023-03-01T08:02:01;5.60;91.70
25440;DHT22;13365;52.208;5.488;2023-03-01T08:04:26;5.50;91.40
25440;DHT22;13365;52.208;5.488;2023-03-01T08:06:53;5.40;91.50
25440;DHT22;13365;52.208;5.488;2023-03-01T08:09:18;5.50;91.70
25440;DHT22;13365;52.208;5.488;2023-03-01T08:11:44;5.50;91.70
25440;DHT22;13365;52.208;5.488;2023-03-01T08:14:09;5.50;91.80
25440;DHT22;13365;52.208;5.488;2023-03-01T08:16:36;5.80;91.60
25440;DHT22;13365;52.208;5.488;2023-03-01T08:19:06;6.00;91.30
25440;DHT22;13365;52.208;5.488;2023-03-01T08:21:32;5.90;90.90
25440;DHT22;13365;52.208;5.488;2023-03-01T08:24:00;6.00;91.00
25440;DHT22;13365;52.208;5.488;2023-03-01T08:26:26;6.10;90.90
25440;DHT22;13365;52.208;5.488;2023-03-01T08:28:52;6.30;90.80
25440;DHT22;13365;52.208;5.488;2023-03-01T08:31:24;6.50;90.50
25440;DHT22;13365;52.208;5.488;2023-03-01T08:33:53;6.80;90.40
25440;DHT22;13365;52.208;5.488;2023-03-01T08:36:30;6.90;90.20
25440;DHT22;13365;52.208;5.488;2023-03-01T08:38:56;6.90;88.50
25440;DHT22;13365;52.208;5.488;2023-03-01T08:41:22;6.90;88.00
25440;DHT22;13365;52.208;5.488;2023-03-01T08:43:48;6.90;88.20
25440;DHT22;13365;52.208;5.488;2023-03-01T08:46:14;7.10;87.50
25440;DHT22;13365;52.208;5.488;2023-03-01T08:48:39;7.00;86.90
25440;DHT22;13365;52.208;5.488;2023-03-01T08:53:34;7.00;88.60
25440;DHT22;13365;52.208;5.488;2023-03-01T08:56:00;7.20;88.10
25440;DHT22;13365;52.208;5.488;2023-03-01T08:58:28;7.30;86.80
25440;DHT22;13365;52.208;5.488;2023-03-01T09:00:53;7.30;86.50
25440;DHT22;13365;52.208;5.488;2023-03-01T09:03:19;7.20;88.00
25440;DHT22;13365;52.208;5.488;2023-03-01T09:05:44;7.50;87.00
25440;DHT22;13365;52.208;5.488;2023-03-01T09:08:11;7.70;86.30
25440;DHT22;13365;52.208;5.488;2023-03-01T09:10:40;7.70;84.80
25440;DHT22;13365;52.208;5.488;2023-03-01T09:13:05;7.60;85.40
25440;DHT22;13365;52.208;5.488;2023-03-01T09:15:31;7.80;86.70
25440;DHT22;13365;52.208;5.488;2023-03-01T09:17:56;7.90;85.30
25440;DHT22;13365;52.208;5.488;2023-03-01T09:20:22;8.00;85.30
25440;DHT22;13365;52.208;5.488;2023-03-01T09:22:47;8.30;86.90
25440;DHT22;13365;52.208;5.488;2023-03-01T09:25:13;8.40;83.80
25440;DHT22;13365;52.208;5.488;2023-03-01T09:27:38;8.60;83.30
25440;DHT22;13365;52.208;5.488;2023-03-01T09:30:04;8.90;82.80
25440;DHT22;13365;52.208;5.488;2023-03-01T09:32:31;9.00;82.50
25440;DHT22;13365;52.208;5.488;2023-03-01T09:34:56;9.00;79.70
25440;DHT22;13365;52.208;5.488;2023-03-01T09:37:35;8.80;78.00
25440;DHT22;13365;52.208;5.488;2023-03-01T09:40:01;8.70;81.20
25440;DHT22;13365;52.208;5.488;2023-03-01T09:42:29;9.00;81.20
25440;DHT22;13365;52.208;5.488;2023-03-01T09:45:13;9.30;79.80
25440;DHT22;13365;52.208;5.488;2023-03-01T09:47:40;9.40;79.90
25440;DHT22;13365;52.208;5.488;2023-03-01T09:50:16;9.50;80.50
25440;DHT22;13365;52.208;5.488;2023-03-01T09:53:10;9.70;80.20
25440;DHT22;13365;52.208;5.488;2023-03-01T09:55:44;9.40;77.00
25440;DHT22;13365;52.208;5.488;2023-03-01T10:04:58;8.40;77.50
25440;DHT22;13365;52.208;5.488;2023-03-01T10:07:44;8.30;76.80
25440;DHT22;13365;52.208;5.488;2023-03-01T10:10:33;8.40;77.50
25440;DHT22;13365;52.208;5.488;2023-03-01T10:13:04;8.50;77.90
25440;DHT22;13365;52.208;5.488;2023-03-01T10:15:41;8.90;80.30
25440;DHT22;13365;52.208;5.488;2023-03-01T10:18:20;9.20;77.50
25440;DHT22;13365;52.208;5.488;2023-03-01T10:23:26;9.20;78.10
25440;DHT22;13365;52.208;5.488;2023-03-01T10:26:16;9.30;76.00
25440;DHT22;13365;52.208;5.488;2023-03-01T10:31:26;9.80;74.60
25440;DHT22;13365;52.208;5.488;2023-03-01T10:33:53;9.80;73.60
25440;DHT22;13365;52.208;5.488;2023-03-01T10:36:21;9.40;71.30
25440;DHT22;13365;52.208;5.488;2023-03-01T10:38:53;9.40;72.70
25440;DHT22;13365;52.208;5.488;2023-03-01T10:41:21;9.20;71.70
25440;DHT22;13365;52.208;5.488;2023-03-01T10:43:54;8.90;71.60
25440;DHT22;13365;52.208;5.488;2023-03-01T10:49:21;8.50;72.90
25440;DHT22;13365;52.208;5.488;2023-03-01T10:51:50;8.90;74.80
25440;DHT22;13365;52.208;5.488;2023-03-01T10:54:26;9.00;71.40
25440;DHT22;13365;52.208;5.488;2023-03-01T10:56:58;9.00;74.30
25440;DHT22;13365;52.208;5.488;2023-03-01T11:04:27;9.20;71.50
25440;DHT22;13365;52.208;5.488;2023-03-01T11:07:01;9.50;72.90
25440;DHT22;13365;52.208;5.488;2023-03-01T11:09:31;9.70;70.80
25440;DHT22;13365;52.208;5.488;2023-03-01T11:12:03;9.80;69.40
25440;DHT22;13365;52.208;5.488;2023-03-01T11:14:36;9.60;68.30
25440;DHT22;13365;52.208;5.488;2023-03-01T11:19:40;9.30;70.00
25440;DHT22;13365;52.208;5.488;2023-03-01T11:22:16;9.30;70.60
25440;DHT22;13365;52.208;5.488;2023-03-01T11:24:46;9.50;69.10
25440;DHT22;13365;52.208;5.488;2023-03-01T11:27:25;9.20;68.60
25440;DHT22;13365;52.208;5.488;2023-03-01T11:30:18;9.40;69.80
25440;DHT22;13365;52.208;5.488;2023-03-01T11:33:05;9.70;70.30
25440;DHT22;13365;52.208;5.488;2023-03-01T11:35:38;9.80;67.30
25440;DHT22;13365;52.208;5.488;2023-03-01T11:38:19;9.70;66.90
25440;DHT22;13365;52.208;5.488;2023-03-01T11:41:00;9.50;67.00
25440;DHT22;13365;52.208;5.488;2023-03-01T11:57:04;10.10;66.90
25440;DHT22;13365;52.208;5.488;2023-03-01T11:59:50;10.40;67.10
25440;DHT22;13365;52.208;5.488;2023-03-01T12:02:44;10.40;65.90
25440;DHT22;13365;52.208;5.488;2023-03-01T12:05:21;10.30;65.20
25440;DHT22;13365;52.208;5.488;2023-03-01T12:10:59;10.70;65.60
25440;DHT22;13365;52.208;5.488;2023-03-01T12:27:55;10.00;66.90
25440;DHT22;13365;52.208;5.488;2023-03-01T12:33:20;10.40;66.60
25440;DHT22;13365;52.208;5.488;2023-03-01T12:36:26;10.20;65.30
25440;DHT22;13365;52.208;5.488;2023-03-01T12:39:12;10.50;67.40
25440;DHT22;13365;52.208;5.488;2023-03-01T12:41:55;10.20;64.60
25440;DHT22;13365;52.208;5.488;2023-03-01T12:47:07;10.50;63.50
25440;DHT22;13365;52.208;5.488;2023-03-01T12:49:41;10.10;63.50
25440;DHT22;13365;52.208;5.488;2023-03-01T12:52:22;10.40;67.20
25440;DHT22;13365;52.208;5.488;2023-03-01T12:54:54;10.70;65.20
25440;DHT22;13365;52.208;5.488;2023-03-01T12:57:24;11.20;64.00
25440;DHT22;13365;52.208;5.488;2023-03-01T13:02:49;11.60;64.80
25440;DHT22;13365;52.208;5.488;2023-03-01T13:05:24;11.50;63.70
25440;DHT22;13365;52.208;5.488;2023-03-01T13:13:20;11.60;63.00
25440;DHT22;13365;52.208;5.488;2023-03-01T13:15:47;11.30;61.60
25440;DHT22;13365;52.208;5.488;2023-03-01T13:20:48;11.10;62.10
25440;DHT22;13365;52.208;5.488;2023-03-01T13:23:24;11.00;62.10
25440;DHT22;13365;52.208;5.488;2023-03-01T13:26:03;10.80;63.30
25440;DHT22;13365;52.208;5.488;2023-03-01T13:31:05;10.90;64.40
25440;DHT22;13365;52.208;5.488;2023-03-01T13:35:59;10.40;63.20
25440;DHT22;13365;52.208;5.488;2023-03-01T13:41:05;10.60;64.90
25440;DHT22;13365;52.208;5.488;2023-03-01T13:43:40;10.40;63.20
25440;DHT22;13365;52.208;5.488;2023-03-01T13:46:17;10.40;62.50
25440;DHT22;13365;52.208;5.488;2023-03-01T13:48:47;10.20;64.10
25440;DHT22;13365;52.208;5.488;2023-03-01T13:51:14;10.20;64.70
25440;DHT22;13365;52.208;5.488;2023-03-01T13:53:43;10.20;63.60
25440;DHT22;13365;52.208;5.488;2023-03-01T13:56:15;10.20;64.40
25440;DHT22;13365;52.208;5.488;2023-03-01T13:58:54;10.10;64.60
25440;DHT22;13365;52.208;5.488;2023-03-01T14:01:26;10.00;65.10
25440;DHT22;13365;52.208;5.488;2023-03-01T14:03:52;10.40;63.80
25440;DHT22;13365;52.208;5.488;2023-03-01T14:06:26;10.20;61.60
25440;DHT22;13365;52.208;5.488;2023-03-01T14:09:14;10.00;62.10
25440;DHT22;13365;52.208;5.488;2023-03-01T14:14:52;9.90;65.20
25440;DHT22;13365;52.208;5.488;2023-03-01T14:20:17;9.90;65.60
25440;DHT22;13365;52.208;5.488;2023-03-01T14:22:44;10.00;63.50
25440;DHT22;13365;52.208;5.488;2023-03-01T14:25:27;9.80;64.00
25440;DHT22;13365;52.208;5.488;2023-03-01T14:28:03;10.00;66.70
25440;DHT22;13365;52.208;5.488;2023-03-01T14:30:42;10.20;63.70
25440;DHT22;13365;52.208;5.488;2023-03-01T14:33:27;10.10;64.20
25440;DHT22;13365;52.208;5.488;2023-03-01T14:35:57;10.30;63.90
25440;DHT22;13365;52.208;5.488;2023-03-01T14:38:35;10.00;64.20
25440;DHT22;13365;52.208;5.488;2023-03-01T14:43:47;9.80;64.70
25440;DHT22;13365;52.208;5.488;2023-03-01T14:46:26;9.60;64.40
25440;DHT22;13365;52.208;5.488;2023-03-01T14:49:01;9.60;66.40
25440;DHT22;13365;52.208;5.488;2023-03-01T14:51:27;9.50;64.30
25440;DHT22;13365;52.208;5.488;2023-03-01T14:53:52;9.60;64.20
25440;DHT22;13365;52.208;5.488;2023-03-01T14:56:18;9.50;64.00
25440;DHT22;13365;52.208;5.488;2023-03-01T14:58:45;9.60;65.00
25440;DHT22;13365;52.208;5.488;2023-03-01T15:01:17;9.90;66.30
25440;DHT22;13365;52.208;5.488;2023-03-01T15:03:50;10.20;65.20
25440;DHT22;13365;52.208;5.488;2023-03-01T15:06:18;10.40;64.60
25440;DHT22;13365;52.208;5.488;2023-03-01T15:08:48;10.80;64.20
25440;DHT22;13365;52.208;5.488;2023-03-01T15:13:53;11.30;62.60
25440;DHT22;13365;52.208;5.488;2023-03-01T15:16:22;11.80;60.90
25440;DHT22;13365;52.208;5.488;2023-03-01T15:18:57;12.00;60.20
25440;DHT22;13365;52.208;5.488;2023-03-01T15:21:26;11.90;60.00
25440;DHT22;13365;52.208;5.488;2023-03-01T15:24:06;11.80;60.10
25440;DHT22;13365;52.208;5.488;2023-03-01T15:26:42;11.60;59.50
25440;DHT22;13365;52.208;5.488;2023-03-01T15:29:19;11.20;60.50
25440;DHT22;13365;52.208;5.488;2023-03-01T15:32:00;11.00;62.70
25440;DHT22;13365;52.208;5.488;2023-03-01T15:34:47;10.70;61.60
25440;DHT22;13365;52.208;5.488;2023-03-01T15:40:22;10.70;62.00
25440;DHT22;13365;52.208;5.488;2023-03-01T15:42:50;10.60;61.20
25440;DHT22;13365;52.208;5.488;2023-03-01T15:47:47;10.90;63.90
25440;DHT22;13365;52.208;5.488;2023-03-01T15:50:35;10.90;63.50
25440;DHT22;13365;52.208;5.488;2023-03-01T15:53:01;10.50;61.50
25440;DHT22;13365;52.208;5.488;2023-03-01T15:55:29;10.40;63.60
25440;DHT22;13365;52.208;5.488;2023-03-01T15:58:14;10.90;63.40
25440;DHT22;13365;52.208;5.488;2023-03-01T16:00:41;11.50;61.60
25440;DHT22;13365;52.208;5.488;2023-03-01T16:03:08;11.50;61.10
25440;DHT22;13365;52.208;5.488;2023-03-01T16:05:34;11.60;60.70
25440;DHT22;13365;52.208;5.488;2023-03-01T16:08:02;11.70;59.90
25440;DHT22;13365;52.208;5.488;2023-03-01T16:10:28;11.60;60.00
25440;DHT22;13365;52.208;5.488;2023-03-01T16:12:54;11.50;60.30
25440;DHT22;13365;52.208;5.488;2023-03-01T16:15:23;11.60;59.60
25440;DHT22;13365;52.208;5.488;2023-03-01T16:17:49;11.60;60.00
25440;DHT22;13365;52.208;5.488;2023-03-01T16:20:15;11.70;60.00
25440;DHT22;13365;52.208;5.488;2023-03-01T16:22:43;11.80;59.10
25440;DHT22;13365;52.208;5.488;2023-03-01T16:25:13;11.50;60.00
25440;DHT22;13365;52.208;5.488;2023-03-01T16:27:42;11.40;59.80
25440;DHT22;13365;52.208;5.488;2023-03-01T16:30:09;11.30;60.60
25440;DHT22;13365;52.208;5.488;2023-03-01T16:32:42;11.30;62.00
25440;DHT22;13365;52.208;5.488;2023-03-01T16:35:11;11.30;61.60
25440;DHT22;13365;52.208;5.488;2023-03-01T16:37:37;11.10;60.70
25440;DHT22;13365;52.208;5.488;2023-03-01T16:40:04;10.70;61.60
25440;DHT22;13365;52.208;5.488;2023-03-01T16:42:34;10.60;62.30
25440;DHT22;13365;52.208;5.488;2023-03-01T16:45:00;10.60;63.00
25440;DHT22;13365;52.208;5.488;2023-03-01T16:47:27;10.20;62.80
25440;DHT22;13365;52.208;5.488;2023-03-01T16:49:53;10.20;64.20
25440;DHT22;13365;52.208;5.488;2023-03-01T16:52:19;10.40;64.00
25440;DHT22;13365;52.208;5.488;2023-03-01T16:54:45;10.50;63.30
25440;DHT22;13365;52.208;5.488;2023-03-01T16:57:11;10.50;63.50
25440;DHT22;13365;52.208;5.488;2023-03-01T16:59:37;10.90;63.60
25440;DHT22;13365;52.208;5.488;2023-03-01T17:02:06;10.70;62.70
25440;DHT22;13365;52.208;5.488;2023-03-01T17:04:35;10.50;63.00
25440;DHT22;13365;52.208;5.488;2023-03-01T17:07:00;10.80;63.50
25440;DHT22;13365;52.208;5.488;2023-03-01T17:09:25;11.00;62.70
25440;DHT22;13365;52.208;5.488;2023-03-01T17:11:51;10.70;61.50
25440;DHT22;13365;52.208;5.488;2023-03-01T17:14:17;10.60;62.20
25440;DHT22;13365;52.208;5.488;2023-03-01T17:16:43;10.40;63.00
25440;DHT22;13365;52.208;5.488;2023-03-01T17:19:10;10.30;63.10
25440;DHT22;13365;52.208;5.488;2023-03-01T17:21:36;9.90;63.50
25440;DHT22;13365;52.208;5.488;2023-03-01T17:24:01;9.60;64.20
25440;DHT22;13365;52.208;5.488;2023-03-01T17:26:28;9.40;64.40
25440;DHT22;13365;52.208;5.488;2023-03-01T17:28:54;9.20;65.60
25440;DHT22;13365;52.208;5.488;2023-03-01T17:31:21;9.30;65.60
25440;DHT22;13365;52.208;5.488;2023-03-01T17:33:47;9.40;65.10
25440;DHT22;13365;52.208;5.488;2023-03-01T17:36:14;9.30;64.50
25440;DHT22;13365;52.208;5.488;2023-03-01T17:38:40;9.30;65.00